createdAt,value
2019-05-19T00:00:27.979Z,19.80
2019-05-19T00:01:27.954Z,19.20
2019-05-19T00:02:27.935Z,21.20
2019-05-19T00:03:27.921Z,18.50
2019-05-19T00:04:28.543Z,22.60
2019-05-19T00:05:28.247Z,19.10
2019-05-19T00:06:27.907Z,18.90
2019-05-19T00:07:27.866Z,19.20
2019-05-19T00:08:27.862Z,18.80
2019-05-19T00:09:27.847Z,18.60
2019-05-19T00:10:27.913Z,19.50
2019-05-19T00:11:27.874Z,22.00
2019-05-19T00:12:27.825Z,21.20
2019-05-19T00:13:27.812Z,21.90
2019-05-19T00:14:28.518Z,23.40
2019-05-19T00:15:27.815Z,22.70
2019-05-19T00:16:27.776Z,21.00
2019-05-19T00:17:27.771Z,20.40
2019-05-19T00:18:27.756Z,21.70
2019-05-19T00:19:27.744Z,22.40
2019-05-19T00:20:27.759Z,21.30
2019-05-19T00:21:27.902Z,20.10
2019-05-19T00:22:27.729Z,21.40
2019-05-19T00:23:27.726Z,21.30
2019-05-19T00:24:27.699Z,19.70
2019-05-19T00:25:27.689Z,20.20
2019-05-19T00:26:27.685Z,18.30
2019-05-19T00:27:27.665Z,18.50
2019-05-19T00:28:27.649Z,17.80
2019-05-19T00:29:27.646Z,18.00
2019-05-19T00:30:27.630Z,18.60
2019-05-19T00:31:27.630Z,18.50
2019-05-19T00:32:27.620Z,19.20
2019-05-19T00:33:27.603Z,19.10
2019-05-19T00:34:27.596Z,17.30
2019-05-19T00:35:27.584Z,18.30
2019-05-19T00:36:27.574Z,17.40
2019-05-19T00:37:27.560Z,19.10
2019-05-19T00:38:27.556Z,20.20
2019-05-19T00:39:27.567Z,20.60
2019-05-19T00:40:27.520Z,18.10
2019-05-19T00:41:27.535Z,18.70
2019-05-19T00:42:27.989Z,17.70
2019-05-19T00:43:28.284Z,20.40
2019-05-19T00:44:27.558Z,19.00
2019-05-19T00:45:27.544Z,21.60
2019-05-19T00:46:27.482Z,19.00
2019-05-19T00:47:27.466Z,19.10
2019-05-19T00:48:27.435Z,17.70
2019-05-19T00:49:40.627Z,19.50
2019-05-19T00:50:28.425Z,19.70
2019-05-19T00:51:27.403Z,18.20
2019-05-19T00:52:27.414Z,18.10
2019-05-19T00:53:27.384Z,20.90
2019-05-19T00:54:27.381Z,24.30
2019-05-19T00:55:27.368Z,19.30
2019-05-19T00:56:27.344Z,18.70
2019-05-19T00:57:27.333Z,21.60
2019-05-19T00:58:27.332Z,20.70
2019-05-19T00:59:27.346Z,20.90
2019-05-19T01:00:27.319Z,21.90
2019-05-19T01:01:27.308Z,20.00
2019-05-19T01:02:27.295Z,21.20
2019-05-19T01:03:27.272Z,22.40
2019-05-19T01:04:27.259Z,22.10
2019-05-19T01:05:27.274Z,21.50
2019-05-19T01:06:27.284Z,20.20
2019-05-19T01:07:27.224Z,21.20
2019-05-19T01:08:27.215Z,20.30
2019-05-19T01:09:27.199Z,21.30
2019-05-19T01:10:27.202Z,22.00
2019-05-19T01:11:27.213Z,21.20
2019-05-19T01:12:27.162Z,20.00
2019-05-19T01:13:27.184Z,22.40
2019-05-19T01:14:27.431Z,22.10
2019-05-19T01:15:27.525Z,24.00
2019-05-19T01:16:27.284Z,22.00
2019-05-19T01:17:27.132Z,22.80
2019-05-19T01:18:27.852Z,23.90
2019-05-19T01:19:27.091Z,20.70
2019-05-19T01:20:27.099Z,22.50
2019-05-19T01:21:27.084Z,21.60
2019-05-19T01:22:27.389Z,20.50
2019-05-19T01:23:27.049Z,21.10
2019-05-19T01:24:27.093Z,21.80
2019-05-19T01:25:27.054Z,25.00
2019-05-19T01:26:27.022Z,21.70
2019-05-19T01:27:27.008Z,21.20
2019-05-19T01:28:27.021Z,22.00
2019-05-19T01:29:27.193Z,23.20
2019-05-19T01:30:27.011Z,21.40
2019-05-19T01:31:26.988Z,21.20
2019-05-19T01:32:26.947Z,18.60
2019-05-19T01:33:26.982Z,21.60
2019-05-19T01:34:26.933Z,22.10
2019-05-19T01:35:26.921Z,21.30
2019-05-19T01:36:26.922Z,20.30
2019-05-19T01:37:26.950Z,24.40
2019-05-19T01:38:28.884Z,21.60
2019-05-19T01:39:26.906Z,20.70
2019-05-19T01:40:26.872Z,22.00
2019-05-19T01:41:26.866Z,20.60
2019-05-19T01:42:26.977Z,25.80
2019-05-19T01:43:26.840Z,24.40
2019-05-19T01:44:26.849Z,24.10
2019-05-19T01:45:26.860Z,21.40
2019-05-19T01:46:26.800Z,22.50
2019-05-19T01:47:26.836Z,25.20
2019-05-19T01:48:28.107Z,23.90
2019-05-19T01:49:26.772Z,24.70
2019-05-19T01:50:26.773Z,27.30
2019-05-19T01:51:26.758Z,28.90
2019-05-19T01:52:26.789Z,28.60
2019-05-19T01:53:26.726Z,24.10
2019-05-19T01:54:26.747Z,23.30
2019-05-19T01:55:26.719Z,26.30
2019-05-19T01:56:26.710Z,30.60
2019-05-19T01:57:26.680Z,27.40
2019-05-19T01:58:26.680Z,23.60
2019-05-19T01:59:26.658Z,24.70
2019-05-19T02:00:26.649Z,27.10
2019-05-19T02:01:26.652Z,23.90
2019-05-19T02:02:26.651Z,26.40
2019-05-19T02:03:26.641Z,25.00
2019-05-19T02:04:26.607Z,24.70
2019-05-19T02:05:26.598Z,24.90
2019-05-19T02:06:26.588Z,26.80
2019-05-19T02:07:26.626Z,27.80
2019-05-19T02:08:26.569Z,30.60
2019-05-19T02:09:26.569Z,31.30
2019-05-19T02:10:26.550Z,25.40
2019-05-19T02:11:26.532Z,27.50
2019-05-19T02:12:26.529Z,25.70
2019-05-19T02:13:26.509Z,27.20
2019-05-19T02:14:26.514Z,33.40
2019-05-19T02:15:26.509Z,29.40
2019-05-19T02:16:26.480Z,30.70
2019-05-19T02:17:26.466Z,25.30
2019-05-19T02:18:26.462Z,24.50
2019-05-19T02:19:26.471Z,28.70
2019-05-19T02:20:33.043Z,26.00
2019-05-19T02:21:27.429Z,33.10
2019-05-19T02:22:26.406Z,30.10
2019-05-19T02:23:26.400Z,26.00
2019-05-19T02:24:26.428Z,26.80
2019-05-19T02:25:26.396Z,26.00
2019-05-19T02:26:26.390Z,28.70
2019-05-19T02:27:26.377Z,31.10
2019-05-19T02:28:26.348Z,27.10
2019-05-19T02:29:26.357Z,26.30
2019-05-19T02:30:26.318Z,29.40
2019-05-19T02:31:26.336Z,30.30
2019-05-19T02:32:26.313Z,27.90
2019-05-19T02:33:26.291Z,23.20
2019-05-19T02:34:26.295Z,22.80
2019-05-19T02:35:26.278Z,23.70
2019-05-19T02:36:26.263Z,24.20
2019-05-19T02:37:26.279Z,23.50
2019-05-19T02:38:26.248Z,25.80
2019-05-19T02:39:26.237Z,25.60
2019-05-19T02:40:26.218Z,26.80
2019-05-19T02:41:26.205Z,28.60
2019-05-19T02:42:26.198Z,30.50
2019-05-19T02:43:26.219Z,35.70
2019-05-19T02:44:26.227Z,35.00
2019-05-19T02:45:26.190Z,26.00
2019-05-19T02:46:26.154Z,26.30
2019-05-19T02:47:26.152Z,25.00
2019-05-19T02:48:26.166Z,25.50
2019-05-19T02:49:26.138Z,23.00
2019-05-19T02:50:26.105Z,26.50
2019-05-19T02:51:26.100Z,24.10
2019-05-19T02:52:26.089Z,28.10
2019-05-19T02:53:26.076Z,28.90
2019-05-19T02:54:26.264Z,29.40
2019-05-19T02:55:26.061Z,35.10
2019-05-19T02:56:26.326Z,29.40
2019-05-19T02:57:26.128Z,38.90
2019-05-19T02:58:26.138Z,32.20
2019-05-19T02:59:26.780Z,27.30
2019-05-19T03:00:26.196Z,29.70
2019-05-19T03:01:26.009Z,26.30
2019-05-19T03:02:25.975Z,30.00
2019-05-19T03:03:26.042Z,27.80
2019-05-19T03:04:25.956Z,22.30
2019-05-19T03:05:25.967Z,25.90
2019-05-19T03:06:25.947Z,26.00
2019-05-19T03:07:25.956Z,28.10
2019-05-19T03:08:26.086Z,24.30
2019-05-19T03:09:25.905Z,23.10
2019-05-19T03:10:25.942Z,25.00
2019-05-19T03:11:25.892Z,34.20
2019-05-19T03:12:25.867Z,25.30
2019-05-19T03:13:25.856Z,24.40
2019-05-19T03:14:26.294Z,29.40
2019-05-19T03:15:26.124Z,29.70
2019-05-19T03:16:26.206Z,27.20
2019-05-19T03:17:26.152Z,28.40
2019-05-19T03:18:26.175Z,29.20
2019-05-19T03:19:26.184Z,28.90
2019-05-19T03:20:26.284Z,28.70
2019-05-19T03:21:26.783Z,30.20
2019-05-19T03:22:26.335Z,30.50
2019-05-19T03:23:25.777Z,29.80
2019-05-19T03:24:25.734Z,30.20
2019-05-19T03:25:25.813Z,27.70
2019-05-19T03:26:25.734Z,29.00
2019-05-19T03:27:25.994Z,37.80
2019-05-19T03:28:26.661Z,31.30
2019-05-19T03:29:25.822Z,30.10
2019-05-19T03:30:25.777Z,39.30
2019-05-19T03:31:25.695Z,34.60
2019-05-19T03:32:25.668Z,37.30
2019-05-19T03:33:26.030Z,33.20
2019-05-19T03:34:27.005Z,35.30
2019-05-19T03:35:25.901Z,29.50
2019-05-19T03:36:25.914Z,33.60
2019-05-19T03:37:26.971Z,31.90
2019-05-19T03:38:26.651Z,32.00
2019-05-19T03:39:25.859Z,36.90
2019-05-19T03:40:25.713Z,38.10
2019-05-19T03:41:25.615Z,36.80
2019-05-19T03:42:25.581Z,36.20
2019-05-19T03:43:26.555Z,33.70
2019-05-19T03:44:26.049Z,36.50
2019-05-19T03:45:25.763Z,38.80
2019-05-19T03:46:26.222Z,31.90
2019-05-19T03:47:25.507Z,34.60
2019-05-19T03:48:27.276Z,35.40
2019-05-19T03:49:25.672Z,37.10
2019-05-19T03:50:25.799Z,35.30
2019-05-19T03:51:30.919Z,32.40
2019-05-19T03:52:26.829Z,31.90
2019-05-19T03:53:25.821Z,38.70
2019-05-19T03:54:25.505Z,37.20
2019-05-19T03:55:25.456Z,45.30
2019-05-19T03:56:26.147Z,43.80
2019-05-19T03:57:25.962Z,36.60
2019-05-19T03:58:26.024Z,38.50
2019-05-19T03:59:25.420Z,38.40
2019-05-19T04:00:25.385Z,36.20
2019-05-19T04:01:25.464Z,34.10
2019-05-19T04:02:25.578Z,42.40
2019-05-19T04:03:25.633Z,48.80
2019-05-19T04:04:25.622Z,39.70
2019-05-19T04:05:25.455Z,35.60
2019-05-19T04:06:25.800Z,30.50
2019-05-19T04:07:26.489Z,31.90
2019-05-19T04:08:25.446Z,32.00
2019-05-19T04:09:25.449Z,34.60
2019-05-19T04:10:25.508Z,33.70
2019-05-19T04:11:25.295Z,31.30
2019-05-19T04:12:25.442Z,32.60
2019-05-19T04:13:25.424Z,31.80
2019-05-19T04:14:25.335Z,32.00
2019-05-19T04:15:25.659Z,28.80
2019-05-19T04:16:25.315Z,29.20
2019-05-19T04:17:25.300Z,31.20
2019-05-19T04:18:25.332Z,33.70
2019-05-19T04:19:25.262Z,30.70
2019-05-19T04:20:25.433Z,27.50
2019-05-19T04:21:25.282Z,28.80
2019-05-19T04:22:25.542Z,29.40
2019-05-19T04:23:25.214Z,46.90
2019-05-19T04:24:25.262Z,47.20
2019-05-19T04:25:25.236Z,42.10
2019-05-19T04:26:25.524Z,39.70
2019-05-19T04:27:25.241Z,43.90
2019-05-19T04:28:25.051Z,42.50
2019-05-19T04:29:25.069Z,37.20
2019-05-19T04:30:25.238Z,38.30
2019-05-19T04:31:25.237Z,35.70
2019-05-19T04:32:25.261Z,37.60
2019-05-19T04:33:25.420Z,32.20
2019-05-19T04:34:25.045Z,31.30
2019-05-19T04:35:25.248Z,27.80
2019-05-19T04:36:25.047Z,28.60
2019-05-19T04:37:25.405Z,34.30
2019-05-19T04:38:24.971Z,31.40
2019-05-19T04:39:25.225Z,38.10
2019-05-19T04:40:25.057Z,27.30
2019-05-19T04:41:25.024Z,26.70
2019-05-19T04:42:25.018Z,28.30
2019-05-19T04:43:25.007Z,27.40
2019-05-19T04:44:24.890Z,27.60
2019-05-19T04:45:25.311Z,29.20
2019-05-19T04:46:24.945Z,31.40
2019-05-19T04:47:25.186Z,34.80
2019-05-19T04:48:24.984Z,30.80
2019-05-19T04:49:25.356Z,32.40
2019-05-19T04:50:24.995Z,29.90
2019-05-19T04:51:25.023Z,41.90
2019-05-19T04:52:25.022Z,40.00
2019-05-19T04:53:24.937Z,40.40
2019-05-19T04:54:24.876Z,39.90
2019-05-19T04:55:24.866Z,39.80
2019-05-19T04:56:24.962Z,39.10
2019-05-19T04:57:25.146Z,41.00
2019-05-19T04:58:24.934Z,39.50
2019-05-19T04:59:24.730Z,35.50
2019-05-19T05:00:24.722Z,31.80
2019-05-19T05:01:24.870Z,34.90
2019-05-19T05:02:25.990Z,34.10
2019-05-19T05:03:24.763Z,35.70
2019-05-19T05:04:29.020Z,32.00
2019-05-19T05:05:25.035Z,35.20
2019-05-19T05:06:24.714Z,30.70
2019-05-19T05:07:24.752Z,33.40
2019-05-19T05:08:30.412Z,32.40
2019-05-19T05:09:25.840Z,35.20
2019-05-19T05:10:24.669Z,34.00
2019-05-19T05:11:24.672Z,35.30
2019-05-19T05:12:24.619Z,36.80
2019-05-19T05:13:24.784Z,35.30
2019-05-19T05:14:25.009Z,33.90
2019-05-19T05:15:24.709Z,32.60
2019-05-19T05:16:24.642Z,37.10
2019-05-19T05:17:24.548Z,31.80
2019-05-19T05:18:24.555Z,32.90
2019-05-19T05:19:24.575Z,33.90
2019-05-19T05:20:24.990Z,32.70
2019-05-19T05:21:24.723Z,31.20
2019-05-19T05:22:24.626Z,31.80
2019-05-19T05:23:24.633Z,31.00
2019-05-19T05:24:24.533Z,28.20
2019-05-19T05:25:24.848Z,28.80
2019-05-19T05:26:24.518Z,27.40
2019-05-19T05:27:24.522Z,29.00
2019-05-19T05:28:24.577Z,27.70
2019-05-19T05:29:24.629Z,27.20
2019-05-19T05:30:24.771Z,24.40
2019-05-19T05:31:24.432Z,24.90
2019-05-19T05:32:24.573Z,23.40
2019-05-19T05:33:24.671Z,23.40
2019-05-19T05:34:24.445Z,22.70
2019-05-19T05:35:24.359Z,21.50
2019-05-19T05:36:27.303Z,21.50
2019-05-19T05:37:24.560Z,20.60
2019-05-19T05:38:24.396Z,19.40
2019-05-19T05:39:24.550Z,19.90
2019-05-19T05:40:24.448Z,20.50
2019-05-19T05:41:24.385Z,20.40
2019-05-19T05:42:24.308Z,20.70
2019-05-19T05:43:24.386Z,21.90
2019-05-19T05:44:24.470Z,22.10
2019-05-19T05:45:24.263Z,21.70
2019-05-19T05:46:24.249Z,22.40
2019-05-19T05:47:24.208Z,22.10
2019-05-19T05:48:24.255Z,22.80
2019-05-19T05:49:24.169Z,22.70
2019-05-19T05:50:24.263Z,22.50
2019-05-19T05:51:24.288Z,23.00
2019-05-19T05:52:37.581Z,22.90
2019-05-19T05:53:25.277Z,24.10
2019-05-19T05:54:24.143Z,23.70
2019-05-19T05:55:24.151Z,23.70
2019-05-19T05:56:24.114Z,23.50
2019-05-19T05:57:24.364Z,23.80
2019-05-19T05:58:24.360Z,24.90
2019-05-19T05:59:24.137Z,25.30
2019-05-19T06:00:24.179Z,24.80
2019-05-19T06:01:24.076Z,25.20
2019-05-19T06:02:24.080Z,24.80
2019-05-19T06:03:24.042Z,25.60
2019-05-19T06:04:24.035Z,25.60
2019-05-19T06:05:24.008Z,25.90
2019-05-19T06:06:24.028Z,24.80
2019-05-19T06:07:23.987Z,24.70
2019-05-19T06:08:23.964Z,26.10
2019-05-19T06:09:24.022Z,25.10
2019-05-19T06:10:23.949Z,26.80
2019-05-19T06:11:23.999Z,27.00
2019-05-19T06:12:23.939Z,27.90
2019-05-19T06:13:23.977Z,26.50
2019-05-19T06:14:23.921Z,26.00
2019-05-19T06:15:23.951Z,25.70
2019-05-19T06:16:23.886Z,25.90
2019-05-19T06:17:23.995Z,27.40
2019-05-19T06:18:25.145Z,25.70
2019-05-19T06:19:24.184Z,25.90
2019-05-19T06:20:23.843Z,25.80
2019-05-19T06:21:23.836Z,24.70
2019-05-19T06:22:23.940Z,26.30
2019-05-19T06:23:23.809Z,28.00
2019-05-19T06:24:23.864Z,24.70
2019-05-19T06:25:23.889Z,26.90
2019-05-19T06:26:23.779Z,27.10
2019-05-19T06:27:23.788Z,25.50
2019-05-19T06:28:23.748Z,25.80
2019-05-19T06:29:23.755Z,26.00
2019-05-19T06:30:23.770Z,27.30
2019-05-19T06:31:45.337Z,27.20
2019-05-19T06:32:23.746Z,27.30
2019-05-19T06:33:23.703Z,27.70
2019-05-19T06:34:23.720Z,27.30
2019-05-19T06:35:23.691Z,25.60
2019-05-19T06:36:23.687Z,27.00
2019-05-19T06:37:23.699Z,26.80
2019-05-19T06:38:23.656Z,26.70
2019-05-19T06:39:23.638Z,26.50
2019-05-19T06:40:23.637Z,26.30
2019-05-19T06:41:23.630Z,25.80
2019-05-19T06:42:23.596Z,28.10
2019-05-19T06:43:23.594Z,26.70
2019-05-19T06:44:23.611Z,26.40
2019-05-19T06:45:23.680Z,28.80
2019-05-19T06:46:23.568Z,28.50
2019-05-19T06:47:23.570Z,26.40
2019-05-19T06:48:23.556Z,26.60
2019-05-19T06:49:23.560Z,27.90
2019-05-19T06:50:23.517Z,27.60
2019-05-19T06:51:23.568Z,26.40
2019-05-19T06:52:23.494Z,27.10
2019-05-19T06:53:23.484Z,27.30
2019-05-19T06:54:23.462Z,25.70
2019-05-19T06:55:23.510Z,26.50
2019-05-19T06:56:23.476Z,27.00
2019-05-19T06:57:23.442Z,26.70
2019-05-19T06:58:23.468Z,26.00
2019-05-19T06:59:23.428Z,26.50
2019-05-19T07:00:23.469Z,26.60
2019-05-19T07:01:23.385Z,27.30
2019-05-19T07:02:23.422Z,27.90
2019-05-19T07:03:23.374Z,28.40
2019-05-19T07:04:23.359Z,28.00
2019-05-19T07:05:23.410Z,27.80
2019-05-19T07:06:23.372Z,26.10
2019-05-19T07:07:23.337Z,25.80
2019-05-19T07:08:23.444Z,26.60
2019-05-19T07:09:23.393Z,28.00
2019-05-19T07:10:23.307Z,25.00
2019-05-19T07:11:23.298Z,26.10
2019-05-19T07:12:23.293Z,25.30
2019-05-19T07:13:23.281Z,26.00
2019-05-19T07:14:23.246Z,25.80
2019-05-19T07:15:23.270Z,26.60
2019-05-19T07:16:23.245Z,26.00
2019-05-19T07:17:23.235Z,26.50
2019-05-19T07:18:23.219Z,24.50
2019-05-19T07:19:23.198Z,25.50
2019-05-19T07:20:24.050Z,24.10
2019-05-19T07:21:23.192Z,24.70
2019-05-19T07:22:23.187Z,24.40
2019-05-19T07:23:28.287Z,25.50
2019-05-19T07:24:24.159Z,25.90
2019-05-19T07:25:23.139Z,27.00
2019-05-19T07:26:23.157Z,25.80
2019-05-19T07:27:23.119Z,27.20
2019-05-19T07:28:23.180Z,25.60
2019-05-19T07:29:23.096Z,24.70
2019-05-19T07:30:23.169Z,26.60
2019-05-19T07:31:23.069Z,24.50
2019-05-19T07:32:23.066Z,24.30
2019-05-19T07:33:23.731Z,24.80
2019-05-19T07:34:23.057Z,23.60
2019-05-19T07:35:23.088Z,21.60
2019-05-19T07:36:23.025Z,21.70
2019-05-19T07:37:23.046Z,21.60
2019-05-19T07:38:23.233Z,23.20
2019-05-19T07:39:22.994Z,22.30
2019-05-19T07:40:23.070Z,22.50
2019-05-19T07:41:22.969Z,21.90
2019-05-19T07:42:22.983Z,22.00
2019-05-19T07:43:22.997Z,21.10
2019-05-19T07:44:22.937Z,21.80
2019-05-19T07:45:22.949Z,22.00
2019-05-19T07:46:22.920Z,22.00
2019-05-19T07:47:23.306Z,22.30
2019-05-19T07:48:22.937Z,20.40
2019-05-19T07:49:22.890Z,21.10
2019-05-19T07:50:22.888Z,20.70
2019-05-19T07:51:22.910Z,20.70
2019-05-19T07:52:22.845Z,21.10
2019-05-19T07:53:22.840Z,22.10
2019-05-19T07:54:22.861Z,21.80
2019-05-19T07:55:22.840Z,21.00
2019-05-19T07:56:22.809Z,20.70
2019-05-19T07:57:22.790Z,21.20
2019-05-19T07:58:22.793Z,21.40
2019-05-19T07:59:22.783Z,19.70
2019-05-19T08:00:22.790Z,20.40
2019-05-19T08:01:22.770Z,19.90
2019-05-19T08:02:23.149Z,20.10
2019-05-19T08:03:22.730Z,20.50
2019-05-19T08:04:23.328Z,20.10
2019-05-19T08:05:22.706Z,21.70
2019-05-19T08:06:22.706Z,21.80
2019-05-19T08:07:22.759Z,22.50
2019-05-19T08:08:22.668Z,20.40
2019-05-19T08:09:22.679Z,20.50
2019-05-19T08:10:22.667Z,20.90
2019-05-19T08:11:22.689Z,20.60
2019-05-19T08:12:22.645Z,20.30
2019-05-19T08:13:22.651Z,20.70
2019-05-19T08:14:22.615Z,19.20
2019-05-19T08:15:22.669Z,18.60
2019-05-19T08:16:22.623Z,17.60
2019-05-19T08:17:25.759Z,14.40
2019-05-19T08:18:22.599Z,14.40
2019-05-19T08:19:22.579Z,14.20
2019-05-19T08:20:22.544Z,14.70
2019-05-19T08:21:23.655Z,14.00
2019-05-19T08:22:22.519Z,14.20
2019-05-19T08:23:22.542Z,14.40
2019-05-19T08:24:22.522Z,15.50
2019-05-19T08:25:22.521Z,14.70
2019-05-19T08:26:23.226Z,13.10
2019-05-19T08:27:22.482Z,12.80
2019-05-19T08:28:22.471Z,13.90
2019-05-19T08:29:22.468Z,14.10
2019-05-19T08:30:22.476Z,13.60
2019-05-19T08:31:22.436Z,13.90
2019-05-19T08:32:22.626Z,12.90
2019-05-19T08:33:22.437Z,13.20
2019-05-19T08:34:22.407Z,14.30
2019-05-19T08:35:22.392Z,13.60
2019-05-19T08:36:22.373Z,14.20
2019-05-19T08:37:22.383Z,13.80
2019-05-19T08:38:22.976Z,12.80
2019-05-19T08:39:22.554Z,12.50
2019-05-19T08:40:23.598Z,11.40
2019-05-19T08:41:22.662Z,11.10
2019-05-19T08:42:22.313Z,10.10
2019-05-19T08:43:22.338Z,9.70
2019-05-19T08:44:22.398Z,9.50
2019-05-19T08:45:24.300Z,10.00
2019-05-19T08:46:22.342Z,8.90
2019-05-19T08:47:22.417Z,8.10
2019-05-19T08:48:22.255Z,7.20
2019-05-19T08:49:22.446Z,6.80
2019-05-19T08:50:22.258Z,7.80
2019-05-19T08:51:22.397Z,7.40
2019-05-19T08:52:23.915Z,8.30
2019-05-19T08:53:22.239Z,9.00
2019-05-19T08:54:22.222Z,8.20
2019-05-19T08:55:23.203Z,8.70
2019-05-19T08:56:22.230Z,8.60
2019-05-19T08:57:22.343Z,9.00
2019-05-19T08:58:22.238Z,7.70
2019-05-19T08:59:22.210Z,7.80
2019-05-19T09:00:23.714Z,7.50
2019-05-19T09:01:26.176Z,7.70
2019-05-19T09:02:26.862Z,8.00
2019-05-19T09:03:22.299Z,8.00
2019-05-19T09:04:22.113Z,8.40
2019-05-19T09:05:22.121Z,7.70
2019-05-19T09:06:22.134Z,8.30
2019-05-19T09:07:22.253Z,7.90
2019-05-19T09:08:22.245Z,7.00
2019-05-19T09:09:22.058Z,7.90
2019-05-19T09:10:22.114Z,7.50
2019-05-19T09:11:22.096Z,8.70
2019-05-19T09:12:22.051Z,9.50
2019-05-19T09:13:22.106Z,7.80
2019-05-19T09:14:22.046Z,7.90
2019-05-19T09:15:22.060Z,8.10
2019-05-19T09:16:22.301Z,7.90
2019-05-19T09:17:21.960Z,7.80
2019-05-19T09:18:22.092Z,8.70
2019-05-19T09:19:22.015Z,8.40
2019-05-19T09:20:21.986Z,8.50
2019-05-19T09:21:21.997Z,9.20
2019-05-19T09:22:22.021Z,9.70
2019-05-19T09:23:22.265Z,9.40
2019-05-19T09:24:30.066Z,9.10
2019-05-19T09:25:22.887Z,9.80
2019-05-19T09:26:22.104Z,9.80
2019-05-19T09:27:22.056Z,8.40
2019-05-19T09:28:22.350Z,9.30
2019-05-19T09:29:22.259Z,9.70
2019-05-19T09:30:21.888Z,10.70
2019-05-19T09:31:21.840Z,10.20
2019-05-19T09:32:21.815Z,10.20
2019-05-19T09:33:21.962Z,10.40
2019-05-19T09:34:22.698Z,10.30
2019-05-19T09:35:21.928Z,9.90
2019-05-19T09:36:21.849Z,10.10
2019-05-19T09:37:22.013Z,9.70
2019-05-19T09:38:21.805Z,10.10
2019-05-19T09:39:21.799Z,10.20
2019-05-19T09:40:21.919Z,9.40
2019-05-19T09:41:21.756Z,9.50
2019-05-19T09:42:21.833Z,9.10
2019-05-19T09:43:21.710Z,10.70
2019-05-19T09:44:21.975Z,9.30
2019-05-19T09:45:21.718Z,10.70
2019-05-19T09:46:21.845Z,10.00
2019-05-19T09:47:22.039Z,9.30
2019-05-19T09:48:21.648Z,9.70
2019-05-19T09:49:21.741Z,8.60
2019-05-19T09:50:21.954Z,8.60
2019-05-19T09:51:21.716Z,9.00
2019-05-19T09:52:21.618Z,9.20
2019-05-19T09:53:21.772Z,8.60
2019-05-19T09:54:21.764Z,8.80
2019-05-19T09:55:21.690Z,9.40
2019-05-19T09:56:21.568Z,8.70
2019-05-19T09:57:21.664Z,9.80
2019-05-19T09:58:21.568Z,9.10
2019-05-19T09:59:21.634Z,8.90
2019-05-19T10:00:21.545Z,9.00
2019-05-19T10:01:21.712Z,10.70
2019-05-19T10:02:21.584Z,10.10
2019-05-19T10:03:21.607Z,10.10
2019-05-19T10:04:21.520Z,9.10
2019-05-19T10:05:21.463Z,10.20
2019-05-19T10:06:21.480Z,9.60
2019-05-19T10:07:21.452Z,9.90
2019-05-19T10:08:21.621Z,9.20
2019-05-19T10:09:21.494Z,9.60
2019-05-19T10:10:21.466Z,9.30
2019-05-19T10:11:22.054Z,9.20
2019-05-19T10:12:21.705Z,9.10
2019-05-19T10:13:21.446Z,10.00
2019-05-19T10:14:21.429Z,10.20
2019-05-19T10:15:21.485Z,9.70
2019-05-19T10:16:21.456Z,11.20
2019-05-19T10:17:21.379Z,9.50
2019-05-19T10:18:21.363Z,9.40
2019-05-19T10:19:21.397Z,9.10
2019-05-19T10:20:21.380Z,10.20
2019-05-19T10:21:21.325Z,9.30
2019-05-19T10:22:21.348Z,8.70
2019-05-19T10:23:21.296Z,9.20
2019-05-19T10:24:21.303Z,9.30
2019-05-19T10:25:22.937Z,9.80
2019-05-19T10:26:22.261Z,10.10
2019-05-19T10:27:21.922Z,9.90
2019-05-19T10:28:21.237Z,10.60
2019-05-19T10:29:21.241Z,15.00
2019-05-19T10:30:21.328Z,9.50
2019-05-19T10:31:21.250Z,10.10
2019-05-19T10:32:21.409Z,9.40
2019-05-19T10:33:21.216Z,9.30
2019-05-19T10:34:21.208Z,9.00
2019-05-19T10:35:21.180Z,8.70
2019-05-19T10:36:21.247Z,9.70
2019-05-19T10:37:21.199Z,8.80
2019-05-19T10:38:21.263Z,9.90
2019-05-19T10:39:21.819Z,10.10
2019-05-19T10:40:21.122Z,9.70
2019-05-19T10:41:21.179Z,12.10
2019-05-19T10:42:21.547Z,10.00
2019-05-19T10:43:21.123Z,11.00
2019-05-19T10:44:21.117Z,11.10
2019-05-19T10:45:21.099Z,10.60
2019-05-19T10:46:21.101Z,10.70
2019-05-19T10:47:21.104Z,10.70
2019-05-19T10:48:21.104Z,11.50
2019-05-19T10:49:21.189Z,11.00
2019-05-19T10:50:21.035Z,10.50
2019-05-19T10:51:21.151Z,10.80
2019-05-19T10:52:21.056Z,11.40
2019-05-19T10:53:20.976Z,11.30
2019-05-19T10:54:21.081Z,10.70
2019-05-19T10:55:34.055Z,11.00
2019-05-19T10:56:21.983Z,11.40
2019-05-19T10:57:20.985Z,10.50
2019-05-19T10:58:21.011Z,10.60
2019-05-19T10:59:22.016Z,11.10
2019-05-19T11:00:20.946Z,11.80
2019-05-19T11:01:20.977Z,11.80
2019-05-19T11:02:22.025Z,12.40
2019-05-19T11:03:20.968Z,11.60
2019-05-19T11:04:20.969Z,11.00
2019-05-19T11:05:20.955Z,10.90
2019-05-19T11:06:20.957Z,11.20
2019-05-19T11:07:20.832Z,11.30
2019-05-19T11:08:20.877Z,10.60
2019-05-19T11:09:20.887Z,10.60
2019-05-19T11:10:20.845Z,11.50
2019-05-19T11:11:21.823Z,10.30
2019-05-19T11:12:20.939Z,10.00
2019-05-19T11:13:20.970Z,10.50
2019-05-19T11:14:20.828Z,10.30
2019-05-19T11:15:20.842Z,11.00
2019-05-19T11:16:20.785Z,10.40
2019-05-19T11:17:20.750Z,11.90
2019-05-19T11:18:20.945Z,10.00
2019-05-19T11:19:20.960Z,8.80
2019-05-19T11:20:20.850Z,10.70
2019-05-19T11:21:20.825Z,9.90
2019-05-19T11:22:20.703Z,10.60
2019-05-19T11:23:20.741Z,9.40
2019-05-19T11:24:20.673Z,10.50
2019-05-19T11:25:33.092Z,10.00
2019-05-19T11:26:21.634Z,10.00
2019-05-19T11:27:20.686Z,8.80
2019-05-19T11:28:20.704Z,6.80
2019-05-19T11:29:20.738Z,7.40
2019-05-19T11:30:20.717Z,7.30
2019-05-19T11:31:20.790Z,7.20
2019-05-19T11:32:20.607Z,6.20
2019-05-19T11:33:20.767Z,7.40
2019-05-19T11:34:20.676Z,7.60
2019-05-19T11:35:20.585Z,7.20
2019-05-19T11:36:20.660Z,8.20
2019-05-19T11:37:20.665Z,7.60
2019-05-19T11:38:20.724Z,7.70
2019-05-19T11:39:20.630Z,6.80
2019-05-19T11:40:21.254Z,7.10
2019-05-19T11:41:20.562Z,7.00
2019-05-19T11:42:20.544Z,6.80
2019-05-19T11:43:20.473Z,6.50
2019-05-19T11:44:20.501Z,7.20
2019-05-19T11:45:20.602Z,6.60
2019-05-19T11:46:20.553Z,6.90
2019-05-19T11:47:20.500Z,7.80
2019-05-19T11:48:20.740Z,6.80
2019-05-19T11:49:20.436Z,6.70
2019-05-19T11:50:20.529Z,7.40
2019-05-19T11:51:20.587Z,7.30
2019-05-19T11:52:22.884Z,7.00
2019-05-19T11:53:20.435Z,7.00
2019-05-19T11:54:29.984Z,8.40
2019-05-19T11:55:20.555Z,6.50
2019-05-19T11:56:20.389Z,6.50
2019-05-19T11:57:20.461Z,7.30
2019-05-19T11:58:20.432Z,6.60
2019-05-19T11:59:20.504Z,6.40
2019-05-19T12:00:20.438Z,6.80
2019-05-19T12:01:20.314Z,8.00
2019-05-19T12:02:20.666Z,7.80
2019-05-19T12:03:20.364Z,7.90
2019-05-19T12:04:20.322Z,7.50
2019-05-19T12:05:20.267Z,6.90
2019-05-19T12:06:21.015Z,6.60
2019-05-19T12:07:20.757Z,7.50
2019-05-19T12:08:20.486Z,7.30
2019-05-19T12:09:20.305Z,7.30
2019-05-19T12:10:21.123Z,6.70
2019-05-19T12:11:20.449Z,7.10
2019-05-19T12:12:20.262Z,6.70
2019-05-19T12:13:20.320Z,7.10
2019-05-19T12:14:20.188Z,7.00
2019-05-19T12:15:20.207Z,6.70
2019-05-19T12:16:20.255Z,6.90
2019-05-19T12:17:20.218Z,6.80
2019-05-19T12:18:20.347Z,6.80
2019-05-19T12:19:20.277Z,7.50
2019-05-19T12:20:20.941Z,7.30
2019-05-19T12:21:20.126Z,7.40
2019-05-19T12:22:20.204Z,7.20
2019-05-19T12:23:20.152Z,7.60
2019-05-19T12:24:20.230Z,7.30
2019-05-19T12:25:20.113Z,8.00
2019-05-19T12:26:23.506Z,7.90
2019-05-19T12:27:20.065Z,7.60
2019-05-19T12:28:20.125Z,8.40
2019-05-19T12:29:20.181Z,8.10
2019-05-19T12:30:20.046Z,7.30
2019-05-19T12:31:20.222Z,7.30
2019-05-19T12:32:20.087Z,7.70
2019-05-19T12:33:20.156Z,7.50
2019-05-19T12:34:20.032Z,7.50
2019-05-19T12:35:20.037Z,9.80
2019-05-19T12:36:20.003Z,8.00
2019-05-19T12:37:19.984Z,8.90
2019-05-19T12:38:20.115Z,8.40
2019-05-19T12:39:20.108Z,8.40
2019-05-19T12:40:22.612Z,8.10
2019-05-19T12:41:19.890Z,9.00
2019-05-19T12:42:19.928Z,8.80
2019-05-19T12:43:19.914Z,9.00
2019-05-19T12:44:20.087Z,9.10
2019-05-19T12:45:19.957Z,9.70
2019-05-19T12:46:19.863Z,9.10
2019-05-19T12:47:20.008Z,9.40
2019-05-19T12:48:19.895Z,9.20
2019-05-19T12:49:19.884Z,9.00
2019-05-19T12:50:19.846Z,9.60
2019-05-19T12:51:19.845Z,9.80
2019-05-19T12:52:20.053Z,9.10
2019-05-19T12:53:19.810Z,10.30
2019-05-19T12:54:19.854Z,10.10
2019-05-19T12:55:19.909Z,9.40
2019-05-19T12:56:19.942Z,10.10
2019-05-19T12:57:21.313Z,11.10
2019-05-19T12:58:19.777Z,11.30